Terminal Aerodrome Forecast
Issued by NWS

Home | Current Version | Previous Version | Text Only | Print | Product List | Glossary On
Versions: 1 2 3 4 5 6 7 8 9 10 11 12 13 14 15 16 17
000
FTUS41 KBTV 291723
TAFMSS
TAF
KMSS 291723Z 2918/3018 22008KT P6SM SCT100 BKN200
     FM300000 21004KT P6SM SCT250
     FM301200 21006KT P6SM VCSH FEW050 SCT120 BKN200
     FM301400 23008KT 5SM -SHRA BR BKN035 BKN120
     FM301700 23010G17KT P6SM SCT050 BKN080=

USA.gov is the U.S. government's official web portal to all federal, state and local government web resources and services.